createdAt,value
2023-01-15T04:17:17.841Z,-0.79
2023-01-15T04:19:57.329Z,-0.16
2023-01-15T04:22:24.991Z,-0.12
2023-01-15T04:25:02.588Z,-0.12
2023-01-15T04:27:35.064Z,-0.25
2023-01-15T04:30:03.141Z,-0.35
2023-01-15T04:32:33.467Z,-0.42
2023-01-15T04:35:06.452Z,-0.51
2023-01-15T04:37:39.136Z,-0.60
2023-01-15T04:40:10.370Z,-0.62
2023-01-15T04:42:56.978Z,-0.58
2023-01-15T04:45:34.265Z,-0.57
2023-01-15T04:48:07.005Z,-0.60
2023-01-15T04:50:34.614Z,-0.64
2023-01-15T04:53:21.628Z,-0.68
2023-01-15T04:55:51.846Z,-0.71
2023-01-15T04:58:25.785Z,-0.71
2023-01-15T05:00:53.321Z,-0.66
2023-01-15T05:03:25.383Z,-0.66
2023-01-15T05:05:57.949Z,-0.68
2023-01-15T05:08:36.271Z,-0.70
2023-01-15T05:11:09.876Z,-0.69
2023-01-15T05:13:50.440Z,-0.63
2023-01-15T05:16:27.315Z,-0.59
2023-01-15T05:19:04.194Z,-0.64
2023-01-15T05:21:38.723Z,-0.69
2023-01-15T05:24:11.230Z,-0.74
2023-01-15T05:26:51.657Z,-0.79
2023-01-15T05:29:38.978Z,-0.80
2023-01-15T05:32:09.861Z,-0.76
2023-01-15T05:34:37.275Z,-0.74
2023-01-15T05:37:04.937Z,-0.79
2023-01-15T05:39:32.290Z,-0.81
2023-01-15T05:42:11.220Z,-0.81
2023-01-15T05:44:38.682Z,-0.76
2023-01-15T05:47:14.599Z,-0.74
2023-01-15T05:49:41.683Z,-0.74
2023-01-15T05:52:14.509Z,-0.77
2023-01-15T05:54:51.452Z,-0.80
2023-01-15T05:57:18.931Z,-0.83
2023-01-15T12:05:54.562Z,-0.84
2023-01-15T12:08:40.350Z,-0.76
2023-01-15T12:11:27.204Z,-0.56
2023-01-15T12:14:03.633Z,-0.33
2023-01-15T12:16:49.009Z,-0.13
2023-01-15T12:19:31.114Z,-0.04
2023-01-15T12:22:04.116Z,0.04
2023-01-15T12:24:53.060Z,0.04
2023-01-15T12:27:23.160Z,0.09
2023-01-15T12:30:02.736Z,0.18
2023-01-15T12:32:43.695Z,0.23
2023-01-15T12:35:32.461Z,0.24
2023-01-15T12:38:11.785Z,0.28
2023-01-15T12:40:45.188Z,0.34
2023-01-15T12:43:43.785Z,0.41
2023-01-15T12:46:16.819Z,0.41
2023-01-15T12:48:59.693Z,0.35
2023-01-15T12:51:36.660Z,0.40
2023-01-15T12:54:11.504Z,0.47
2023-01-15T12:56:47.661Z,0.52
2023-01-15T12:59:24.875Z,0.56
2023-01-15T13:02:10.753Z,0.55
2023-01-15T13:05:16.588Z,0.52
2023-01-15T13:07:49.003Z,0.48
2023-01-15T13:10:20.015Z,0.45
2023-01-15T13:12:47.045Z,0.34
2023-01-15T13:15:15.122Z,0.27
2023-01-15T13:18:01.119Z,0.25
2023-01-15T13:20:32.069Z,0.22
2023-01-15T13:23:05.452Z,0.19
2023-01-15T13:25:51.451Z,0.17
2023-01-15T13:29:13.278Z,0.21
2023-01-15T13:31:52.347Z,0.15
2023-01-15T13:34:58.058Z,0.10
2023-01-15T13:37:33.956Z,0.08
2023-01-15T13:40:04.298Z,0.12
2023-01-15T13:42:34.773Z,0.14
2023-01-15T13:45:34.406Z,0.08
2023-01-15T13:48:07.456Z,0.01
2023-01-15T13:50:41.428Z,-0.01
2023-01-15T13:53:34.233Z,0.01
2023-01-15T13:56:12.818Z,-0.03
2023-01-15T13:58:51.891Z,-0.03
2023-01-15T19:03:56.384Z,-0.67
2023-01-15T19:06:23.382Z,-0.18
2023-01-15T19:08:53.737Z,-0.23
2023-01-15T19:11:23.036Z,-0.31
2023-01-15T19:14:10.258Z,-0.35
2023-01-15T19:16:58.502Z,-0.43
2023-01-15T19:19:26.063Z,-0.49
2023-01-15T19:22:11.853Z,-0.52
2023-01-15T19:24:42.416Z,-0.58
2023-01-15T19:27:11.988Z,-0.61
2023-01-15T19:29:42.207Z,-0.63
2023-01-15T19:32:09.567Z,-0.66
2023-01-15T19:34:36.815Z,-0.71
2023-01-15T19:37:04.479Z,-0.76
2023-01-15T19:39:32.041Z,-0.77
2023-01-15T19:42:17.833Z,-0.79
2023-01-15T19:45:06.275Z,-0.84
2023-01-15T19:47:56.980Z,-0.90
2023-01-15T19:50:33.961Z,-0.90
2023-01-15T19:53:02.542Z,-0.91
2023-01-15T19:55:33.285Z,-0.85
2023-01-15T19:58:02.202Z,-0.84
2023-01-15T20:00:34.360Z,-0.88
2023-01-15T20:03:10.089Z,-0.90
2023-01-15T20:05:37.655Z,-0.90
2023-01-15T20:08:05.213Z,-0.88
2023-01-15T20:10:38.603Z,-0.93
2023-01-15T20:13:24.597Z,-0.91
2023-01-15T20:15:51.847Z,-0.90
2023-01-15T20:18:23.612Z,-0.93
2023-01-15T20:20:51.171Z,-0.96
2023-01-15T20:23:18.333Z,-0.96
2023-01-15T20:25:50.284Z,-0.96
2023-01-15T20:28:19.688Z,-0.98
2023-01-15T20:30:47.262Z,-1.00
2023-01-15T20:33:24.430Z,-1.01
2023-01-15T20:35:54.453Z,-0.95
2023-01-15T20:38:27.029Z,-0.89
2023-01-15T20:40:54.689Z,-0.90
2023-01-15T20:43:40.477Z,-0.94
2023-01-15T20:46:12.686Z,-0.94
2023-01-15T20:48:58.534Z,-0.92
2023-01-15T20:51:25.889Z,-1.01
2023-01-15T20:53:53.552Z,-1.07
2023-01-15T20:56:21.128Z,-1.11
2023-01-15T20:58:48.671Z,-1.08
2023-01-15T21:01:18.407Z,-1.12
2023-01-15T21:03:49.528Z,-1.16
2023-01-15T21:06:19.960Z,-1.18
2023-01-15T21:08:47.614Z,-1.15
2023-01-15T21:11:15.278Z,-1.15
2023-01-15T21:13:48.984Z,-1.16
2023-01-15T21:16:16.476Z,-1.11
2023-01-15T21:18:48.099Z,-1.05
2023-01-15T21:21:19.642Z,-1.05
2023-01-15T21:23:52.225Z,-1.10
2023-01-15T21:26:29.207Z,-1.13
2023-01-15T21:28:56.669Z,-1.10
2023-01-15T21:31:26.521Z,-1.09
2023-01-15T21:33:57.321Z,-1.12
2023-01-15T21:36:33.784Z,-1.12
2023-01-15T21:39:01.367Z,-1.14
2023-01-15T21:41:50.206Z,-1.17
2023-01-15T21:44:57.085Z,-1.18
2023-01-15T21:47:30.339Z,-1.14
2023-01-15T21:50:00.972Z,-1.15
2023-01-15T21:52:45.263Z,-1.21
